Time;durP1;ratioP1;P1;durP2;ratioP2;P2;SDS_P1;SDS_P2;PMS_P1;PMS_P2;Temp;Humidity;BMP_temperature;BMP_pressure;BME280_temperature;BME280_humidity;BME280_pressure;Samples;Min_cycle;Max_cycle;Signal;HPM_P1;HPM_P2
2022/03/13 00:02:24;;;;;;;;;;;;;;;6.76;23.08;100766.03;4487178;31;33041;-66
2022/03/13 00:04:56;;;;;;;;;;;;;;;6.75;23.31;100760.78;4483870;31;35362;-65
2022/03/13 00:07:28;;;;;;;;;;;;;;;6.80;23.67;100761.44;4486371;31;32954;-68
2022/03/13 00:09:58;;;;;;;;;;;;;;;6.81;23.48;100757.84;4484041;31;31641;-66
2022/03/13 00:12:29;;;;;;;;;;;;;;;6.59;23.58;100757.91;4493869;31;33099;-66
2022/03/13 00:15:02;;;;;;;;;;;;;;;6.49;23.71;100752.09;4489065;31;33627;-67
2022/03/13 00:17:31;;;;;;;;;;;;;;;6.56;23.29;100760.69;4482748;31;33245;-67
2022/03/13 00:20:01;;;;;;;;;;;;;;;6.48;23.75;100761.00;4484743;31;33510;-69
2022/03/13 00:22:30;;;;;;;;;;;;;;;6.16;24.85;100753.47;4494179;31;33661;-70
2022/03/13 00:25:02;;;;;;;;;;;;;;;6.43;24.43;100755.03;4489934;31;34393;-69
2022/03/13 00:27:31;;;;;;;;;;;;;;;6.66;23.87;100756.72;4484500;31;33305;-70
2022/03/13 00:29:59;;;;;;;;;;;;;;;5.87;25.85;100752.81;4493206;31;32250;-68
2022/03/13 00:32:27;;;;;;;;;;;;;;;5.76;25.77;100744.41;4482935;31;32890;-67
2022/03/13 00:34:56;;;;;;;;;;;;;;;5.66;25.88;100746.56;4492153;31;35083;-65
2022/03/13 00:37:26;;;;;;;;;;;;;;;6.51;24.57;100744.03;4497616;31;33630;-65
2022/03/13 00:39:56;;;;;;;;;;;;;;;6.38;24.96;100737.50;4497462;31;33539;-65
2022/03/13 00:42:24;;;;;;;;;;;;;;;6.53;25.05;100747.53;4489448;31;34130;-68
2022/03/13 00:44:52;;;;;;;;;;;;;;;6.56;24.70;100743.88;4487953;31;32979;-67
2022/03/13 00:47:21;;;;;;;;;;;;;;;6.63;24.06;100754.19;4481592;31;34281;-65
2022/03/13 00:49:51;;;;;;;;;;;;;;;6.21;24.97;100747.06;4485924;31;32983;-67
2022/03/13 00:52:20;;;;;;;;;;;;;;;6.28;24.97;100739.69;4490348;31;33291;-65
2022/03/13 00:54:48;;;;;;;;;;;;;;;5.54;26.13;100745.22;4481310;31;33874;-65
2022/03/13 00:57:18;;;;;;;;;;;;;;;5.14;26.91;100753.81;4484843;31;34235;-66
2022/03/13 00:59:47;;;;;;;;;;;;;;;5.47;26.55;100745.53;4485569;31;33328;-65
2022/03/13 01:02:16;;;;;;;;;;;;;;;6.39;24.00;100741.91;4486707;31;34080;-66
2022/03/13 01:04:51;;;;;;;;;;;;;;;6.07;25.09;100736.13;4483658;31;33698;-64
2022/03/13 01:07:20;;;;;;;;;;;;;;;5.92;25.55;100736.72;4494303;31;34043;-66
2022/03/13 01:09:53;;;;;;;;;;;;;;;5.78;25.86;100732.81;4487748;31;32659;-66
2022/03/13 01:12:22;;;;;;;;;;;;;;;5.72;26.02;100733.03;4487192;31;34224;-65
2022/03/13 01:14:52;;;;;;;;;;;;;;;6.39;24.28;100731.25;4489338;31;33983;-66
2022/03/13 01:17:20;;;;;;;;;;;;;;;6.49;23.80;100730.81;4489789;31;35335;-66
2022/03/13 01:19:50;;;;;;;;;;;;;;;6.40;24.18;100736.53;4496818;31;33287;-64
2022/03/13 01:22:19;;;;;;;;;;;;;;;5.90;25.08;100723.47;4486421;31;34859;-66
2022/03/13 01:24:47;;;;;;;;;;;;;;;5.67;26.06;100724.38;4488027;31;34342;-69
2022/03/13 01:27:15;;;;;;;;;;;;;;;5.14;26.56;100720.19;4494936;31;35286;-65
2022/03/13 01:29:45;;;;;;;;;;;;;;;6.07;24.62;100725.50;4484160;31;33449;-65
2022/03/13 01:32:16;;;;;;;;;;;;;;;6.49;23.93;100729.97;4496891;31;35201;-65
2022/03/13 01:34:47;;;;;;;;;;;;;;;6.30;24.65;100733.38;4498327;31;34736;-64
2022/03/13 01:37:19;;;;;;;;;;;;;;;6.48;23.34;100730.88;4486964;31;34157;-65
2022/03/13 01:39:48;;;;;;;;;;;;;;;6.23;24.07;100728.41;4469597;31;33074;-65
2022/03/13 01:42:17;;;;;;;;;;;;;;;6.19;23.94;100722.31;4494632;31;34308;-66
2022/03/13 01:44:45;;;;;;;;;;;;;;;6.20;24.13;100726.72;4487160;31;33293;-65
2022/03/13 01:47:16;;;;;;;;;;;;;;;5.93;25.51;100720.72;4492265;31;32936;-64
2022/03/13 01:49:47;;;;;;;;;;;;;;;6.11;24.26;100715.59;4485737;31;32664;-66
2022/03/13 01:52:16;;;;;;;;;;;;;;;5.74;26.04;100720.53;4494730;31;35284;-65
2022/03/13 01:54:45;;;;;;;;;;;;;;;5.41;26.03;100709.44;4492515;31;33203;-64
2022/03/13 01:57:15;;;;;;;;;;;;;;;5.03;27.34;100710.88;4490865;31;34219;-65
2022/03/13 02:00:04;;;;;;;;;;;;;;;4.97;27.23;100706.66;4484155;31;34910;-65
2022/03/13 02:02:47;;;;;;;;;;;;;;;4.81;27.48;100708.13;4488821;31;32961;-69
2022/03/13 02:05:26;;;;;;;;;;;;;;;5.90;24.79;100719.94;4483056;31;34631;-65
2022/03/13 02:07:56;;;;;;;;;;;;;;;6.13;24.08;100709.31;4498394;31;34479;-67
2022/03/13 02:10:27;;;;;;;;;;;;;;;6.09;24.04;100701.50;4490104;31;34426;-64
2022/03/13 02:12:59;;;;;;;;;;;;;;;5.94;24.14;100695.91;4484061;31;32382;-64
2022/03/13 02:15:32;;;;;;;;;;;;;;;5.52;24.45;100695.75;4495800;31;33533;-64
2022/03/13 02:18:08;;;;;;;;;;;;;;;5.06;25.60;100694.84;4495742;31;34747;-66
2022/03/13 02:20:44;;;;;;;;;;;;;;;4.70;26.13;100694.41;4486349;31;32123;-65
2022/03/13 02:23:23;;;;;;;;;;;;;;;4.81;26.23;100697.50;4485368;31;33878;-65
2022/03/13 02:26:04;;;;;;;;;;;;;;;4.46;26.99;100693.44;4487544;31;34274;-66
2022/03/13 02:28:52;;;;;;;;;;;;;;;5.30;25.54;100693.94;4485173;31;32985;-66
2022/03/13 02:31:26;;;;;;;;;;;;;;;5.31;25.55;100693.00;4484325;31;31599;-64
2022/03/13 02:33:57;;;;;;;;;;;;;;;4.79;26.32;100694.94;4473782;31;33418;-65
2022/03/13 02:36:30;;;;;;;;;;;;;;;4.85;26.54;100693.84;4485797;31;33131;-66
2022/03/13 02:39:13;;;;;;;;;;;;;;;4.94;26.01;100696.16;4485943;31;33002;-66
2022/03/13 02:41:43;;;;;;;;;;;;;;;4.99;25.95;100688.91;4494204;31;33098;-63
2022/03/13 02:44:21;;;;;;;;;;;;;;;5.33;25.66;100683.19;4484093;31;32487;-67
2022/03/13 02:46:57;;;;;;;;;;;;;;;5.22;25.63;100685.38;4482383;31;33932;-64
2022/03/13 02:49:33;;;;;;;;;;;;;;;5.43;25.20;100686.38;4494618;31;33915;-65
2022/03/13 02:52:10;;;;;;;;;;;;;;;5.10;25.78;100685.84;4483353;31;32742;-67
2022/03/13 02:54:42;;;;;;;;;;;;;;;5.13;25.93;100685.72;4492540;31;34588;-67
2022/03/13 02:57:13;;;;;;;;;;;;;;;5.29;25.04;100684.22;4479255;31;32868;-64
2022/03/13 02:59:49;;;;;;;;;;;;;;;5.48;24.62;100680.87;4471877;31;35312;-64
2022/03/13 03:02:24;;;;;;;;;;;;;;;5.24;25.25;100675.59;4483999;31;32390;-64
2022/03/13 03:04:57;;;;;;;;;;;;;;;4.70;26.31;100686.44;4492906;31;33106;-65
2022/03/13 03:07:30;;;;;;;;;;;;;;;4.89;25.99;100685.72;4483548;31;33156;-65
2022/03/13 03:10:01;;;;;;;;;;;;;;;5.23;24.91;100673.88;4490978;31;34179;-64
2022/03/13 03:12:35;;;;;;;;;;;;;;;4.95;25.77;100679.34;4497708;31;33144;-64
2022/03/13 03:15:09;;;;;;;;;;;;;;;5.01;25.41;100672.91;4492851;31;32898;-67
2022/03/13 03:17:43;;;;;;;;;;;;;;;4.61;26.52;100680.53;4489345;31;34037;-64
2022/03/13 03:20:15;;;;;;;;;;;;;;;4.54;26.92;100672.84;4483317;31;34250;-64
2022/03/13 03:22:53;;;;;;;;;;;;;;;5.00;25.60;100676.50;4490555;31;34082;-65
2022/03/13 03:25:31;;;;;;;;;;;;;;;4.49;26.81;100680.09;4484532;31;34218;-66
2022/03/13 03:28:06;;;;;;;;;;;;;;;4.32;27.23;100675.38;4491212;31;34288;-65
2022/03/13 03:30:35;;;;;;;;;;;;;;;3.82;27.91;100669.97;4491345;31;33697;-65
2022/03/13 03:33:04;;;;;;;;;;;;;;;4.13;27.68;100673.34;4487622;31;33391;-64
2022/03/13 03:35:34;;;;;;;;;;;;;;;4.48;27.25;100671.28;4490836;31;35017;-66
2022/03/13 03:38:03;;;;;;;;;;;;;;;4.28;27.14;100669.31;4487204;31;32968;-69
2022/03/13 03:40:32;;;;;;;;;;;;;;;4.01;27.29;100663.16;4492592;31;33527;-67
2022/03/13 03:43:02;;;;;;;;;;;;;;;4.06;27.15;100661.22;4496548;31;32497;-66
2022/03/13 03:45:31;;;;;;;;;;;;;;;4.37;27.09;100657.53;4493773;31;34182;-64
2022/03/13 03:48:01;;;;;;;;;;;;;;;4.23;27.27;100651.84;4489619;31;33627;-66
2022/03/13 03:50:29;;;;;;;;;;;;;;;4.24;27.17;100649.16;4490570;31;35040;-66
2022/03/13 03:52:58;;;;;;;;;;;;;;;4.39;27.30;100645.09;4471123;31;32526;-66
2022/03/13 03:55:28;;;;;;;;;;;;;;;4.22;27.48;100645.69;4482750;31;34199;-65
2022/03/13 03:57:57;;;;;;;;;;;;;;;4.58;26.41;100653.25;4482351;31;34521;-68
2022/03/13 04:00:26;;;;;;;;;;;;;;;4.84;25.63;100653.19;4490840;31;35246;-64
2022/03/13 04:02:55;;;;;;;;;;;;;;;4.80;25.85;100651.56;4482827;31;32349;-67
2022/03/13 04:05:23;;;;;;;;;;;;;;;4.86;25.52;100655.78;4489176;31;35211;-67
2022/03/13 04:07:51;;;;;;;;;;;;;;;4.82;25.54;100655.03;4494208;31;34179;-67
2022/03/13 04:10:20;;;;;;;;;;;;;;;4.62;26.05;100662.81;4490967;31;34022;-66
2022/03/13 04:12:54;;;;;;;;;;;;;;;4.75;25.69;100650.87;4482160;31;33311;-65
2022/03/13 04:15:34;;;;;;;;;;;;;;;4.75;25.74;100650.00;4490669;31;34051;-67
2022/03/13 04:18:03;;;;;;;;;;;;;;;4.53;26.54;100657.87;4483882;31;34203;-65
2022/03/13 04:20:32;;;;;;;;;;;;;;;4.67;25.83;100642.31;4484729;31;32692;-67
2022/03/13 04:23:02;;;;;;;;;;;;;;;3.93;27.61;100644.00;4486041;31;34342;-65
2022/03/13 04:25:31;;;;;;;;;;;;;;;4.18;26.97;100644.91;4481888;31;32903;-64
2022/03/13 04:28:00;;;;;;;;;;;;;;;4.00;27.28;100647.31;4488389;31;32900;-66
2022/03/13 04:30:30;;;;;;;;;;;;;;;4.41;26.60;100652.06;4487498;31;34273;-67
2022/03/13 04:33:00;;;;;;;;;;;;;;;4.32;26.41;100644.44;4495434;31;32719;-66
2022/03/13 04:35:31;;;;;;;;;;;;;;;4.65;25.95;100647.69;4491380;31;33072;-65
2022/03/13 04:38:01;;;;;;;;;;;;;;;4.82;25.40;100648.88;4486065;31;33304;-66
2022/03/13 04:40:30;;;;;;;;;;;;;;;4.41;26.53;100637.94;4484030;31;34120;-66
2022/03/13 04:42:59;;;;;;;;;;;;;;;4.06;27.38;100631.22;4485410;31;33166;-66
2022/03/13 04:45:29;;;;;;;;;;;;;;;4.07;27.18;100633.81;4489585;31;33138;-65
2022/03/13 04:48:01;;;;;;;;;;;;;;;3.81;27.65;100632.03;4488803;31;33169;-64
2022/03/13 04:50:30;;;;;;;;;;;;;;;4.06;27.28;100632.09;4495271;31;32934;-65
2022/03/13 04:53:01;;;;;;;;;;;;;;;4.63;26.25;100625.66;4488594;31;32141;-64
2022/03/13 04:55:30;;;;;;;;;;;;;;;4.81;25.60;100631.22;4490662;31;32917;-66
2022/03/13 04:58:01;;;;;;;;;;;;;;;4.50;26.64;100626.16;4482570;31;32919;-67
2022/03/13 05:00:38;;;;;;;;;;;;;;;4.56;26.02;100626.81;4489248;31;34250;-65
2022/03/13 05:03:14;;;;;;;;;;;;;;;4.66;25.84;100624.69;4481860;31;33335;-65
2022/03/13 05:05:42;;;;;;;;;;;;;;;4.67;25.87;100623.75;4482182;31;33857;-66
2022/03/13 05:08:15;;;;;;;;;;;;;;;4.47;26.46;100623.63;4485042;31;34386;-64
2022/03/13 05:10:45;;;;;;;;;;;;;;;4.35;26.07;100639.03;4489200;31;34061;-66
2022/03/13 05:13:15;;;;;;;;;;;;;;;3.71;27.58;100641.19;4486615;31;32174;-67
2022/03/13 05:15:45;;;;;;;;;;;;;;;4.33;26.88;100635.56;4482251;31;32876;-64
2022/03/13 05:18:14;;;;;;;;;;;;;;;4.63;26.20;100640.72;4490777;31;34248;-65
2022/03/13 05:20:45;;;;;;;;;;;;;;;4.48;27.76;100639.47;4482345;31;33214;-65
2022/03/13 05:23:16;;;;;;;;;;;;;;;4.56;26.34;100644.47;4496314;31;32813;-65
2022/03/13 05:25:46;;;;;;;;;;;;;;;4.65;26.61;100655.66;4495441;31;32835;-64
2022/03/13 05:28:17;;;;;;;;;;;;;;;4.79;25.89;100644.53;4494608;31;34024;-65
2022/03/13 05:30:46;;;;;;;;;;;;;;;5.00;25.89;100644.66;4485504;31;33219;-70
2022/03/13 05:33:16;;;;;;;;;;;;;;;4.48;26.75;100642.12;4486513;31;33113;-63
2022/03/13 05:35:46;;;;;;;;;;;;;;;4.88;27.25;100651.31;4491431;31;33218;-66
2022/03/13 05:38:17;;;;;;;;;;;;;;;5.55;26.19;100643.41;4493303;31;32891;-67
2022/03/13 05:40:47;;;;;;;;;;;;;;;5.37;26.79;100642.34;4488471;31;33883;-67
2022/03/13 05:43:16;;;;;;;;;;;;;;;5.64;26.07;100644.81;4483119;31;32147;-65
2022/03/13 05:45:49;;;;;;;;;;;;;;;5.88;25.88;100655.41;4481942;31;32956;-65
2022/03/13 05:48:18;;;;;;;;;;;;;;;5.82;26.03;100653.84;4481253;31;35420;-67
2022/03/13 05:50:47;;;;;;;;;;;;;;;6.31;25.82;100651.81;4490329;31;34269;-64
2022/03/13 05:53:18;;;;;;;;;;;;;;;6.47;25.10;100646.72;4483923;31;34407;-66
2022/03/13 05:55:48;;;;;;;;;;;;;;;6.56;25.00;100642.78;4482420;31;35109;-65
2022/03/13 05:58:17;;;;;;;;;;;;;;;7.36;24.02;100645.34;4487350;31;34464;-65
2022/03/13 06:01:03;;;;;;;;;;;;;;;7.26;23.93;100649.38;4487543;31;32985;-66
2022/03/13 06:03:32;;;;;;;;;;;;;;;7.08;23.96;100645.78;4490694;31;32169;-67
2022/03/13 06:06:03;;;;;;;;;;;;;;;7.71;23.35;100643.66;4487423;31;33640;-68
2022/03/13 06:08:34;;;;;;;;;;;;;;;7.94;23.22;100642.53;4483220;31;33490;-64
2022/03/13 06:11:03;;;;;;;;;;;;;;;8.25;22.52;100643.66;4494357;31;33040;-67
2022/03/13 06:13:34;;;;;;;;;;;;;;;8.37;22.37;100643.87;4484280;31;32563;-65
2022/03/13 06:16:04;;;;;;;;;;;;;;;8.45;21.72;100648.03;4489161;31;33541;-64
2022/03/13 06:18:34;;;;;;;;;;;;;;;8.13;21.34;100651.34;4495694;31;33157;-65
2022/03/13 06:21:03;;;;;;;;;;;;;;;8.29;21.81;100651.44;4487590;31;35045;-67
2022/03/13 06:23:34;;;;;;;;;;;;;;;8.88;20.96;100654.63;4498779;31;33147;-64
2022/03/13 06:26:05;;;;;;;;;;;;;;;9.35;19.82;100653.87;4485013;31;34279;-65
2022/03/13 06:28:36;;;;;;;;;;;;;;;9.70;19.63;100651.03;4484061;31;34509;-66
2022/03/13 06:31:06;;;;;;;;;;;;;;;9.53;20.12;100654.63;4485717;31;34126;-64
2022/03/13 06:33:37;;;;;;;;;;;;;;;9.36;20.72;100657.41;4487771;31;32019;-64
2022/03/13 06:36:14;;;;;;;;;;;;;;;9.50;20.68;100653.03;4493131;31;35166;-67
2022/03/13 06:38:43;;;;;;;;;;;;;;;9.37;21.08;100662.62;4486313;31;34454;-65
2022/03/13 06:41:11;;;;;;;;;;;;;;;9.82;20.72;100661.00;4484278;31;32893;-65
2022/03/13 06:43:39;;;;;;;;;;;;;;;9.87;20.71;100666.97;4494842;31;32346;-67
2022/03/13 06:46:13;;;;;;;;;;;;;;;10.28;20.01;100673.59;4486545;31;34323;-65
2022/03/13 06:48:42;;;;;;;;;;;;;;;10.44;19.61;100672.59;4483912;31;34100;-65
2022/03/13 06:51:09;;;;;;;;;;;;;;;10.00;20.77;100675.16;4482659;31;33933;-65
2022/03/13 06:53:37;;;;;;;;;;;;;;;10.45;20.36;100673.44;4488934;31;31963;-65
2022/03/13 06:56:07;;;;;;;;;;;;;;;10.35;20.63;100673.12;4488868;31;34892;-65
2022/03/13 06:58:35;;;;;;;;;;;;;;;10.38;20.54;100678.28;4494260;31;32678;-66
2022/03/13 07:01:03;;;;;;;;;;;;;;;11.39;19.24;100676.59;4486932;31;32774;-65
2022/03/13 07:03:32;;;;;;;;;;;;;;;11.54;19.25;100670.25;4486989;31;33518;-65
2022/03/13 07:06:04;;;;;;;;;;;;;;;11.57;19.45;100670.06;4483490;31;34601;-68
2022/03/13 07:08:32;;;;;;;;;;;;;;;11.47;19.21;100668.06;4489232;31;33105;-66
2022/03/13 07:11:01;;;;;;;;;;;;;;;11.51;19.21;100669.59;4482399;31;35179;-64
2022/03/13 07:13:32;;;;;;;;;;;;;;;11.22;19.00;100666.94;4482599;31;34074;-66
2022/03/13 07:16:03;;;;;;;;;;;;;;;11.87;18.50;100674.41;4484327;31;33744;-66
2022/03/13 07:18:33;;;;;;;;;;;;;;;12.28;18.00;100670.81;4483523;31;34212;-66
2022/03/13 07:21:03;;;;;;;;;;;;;;;12.52;18.19;100669.19;4491953;31;34172;-66
2022/03/13 07:23:38;;;;;;;;;;;;;;;12.84;17.22;100671.47;4491650;31;33480;-65
2022/03/13 07:26:08;;;;;;;;;;;;;;;12.21;17.32;100670.38;4483563;31;34593;-65
2022/03/13 07:28:37;;;;;;;;;;;;;;;12.33;17.07;100666.03;4483436;31;35427;-65
2022/03/13 07:31:05;;;;;;;;;;;;;;;12.88;17.07;100669.44;4488983;31;33947;-65
2022/03/13 07:33:35;;;;;;;;;;;;;;;12.40;16.65;100675.38;4492477;31;34946;-65
2022/03/13 07:36:04;;;;;;;;;;;;;;;12.37;16.80;100672.03;4496692;31;33882;-64
2022/03/13 07:38:33;;;;;;;;;;;;;;;12.26;17.15;100673.63;4484966;31;34387;-65
2022/03/13 07:41:01;;;;;;;;;;;;;;;11.36;18.29;100674.97;4487133;31;33015;-66
2022/03/13 07:43:30;;;;;;;;;;;;;;;11.51;17.61;100680.31;4484121;31;34357;-65
2022/03/13 07:46:00;;;;;;;;;;;;;;;12.19;17.60;100683.03;4482632;31;34282;-64
2022/03/13 07:48:29;;;;;;;;;;;;;;;11.09;18.05;100682.91;4483223;31;35467;-65
2022/03/13 07:50:59;;;;;;;;;;;;;;;11.64;17.78;100681.25;4484864;31;33055;-64
2022/03/13 07:53:28;;;;;;;;;;;;;;;10.65;19.11;100686.47;4489907;31;34049;-66
2022/03/13 07:55:58;;;;;;;;;;;;;;;10.60;19.94;100693.09;4486888;31;34883;-66
2022/03/13 07:58:29;;;;;;;;;;;;;;;11.23;18.74;100695.44;4482570;31;34558;-65
2022/03/13 08:00:59;;;;;;;;;;;;;;;11.64;18.40;100690.16;4488344;31;34188;-66
2022/03/13 08:03:34;;;;;;;;;;;;;;;11.83;18.43;100686.28;4486295;31;33346;-66
2022/03/13 08:06:03;;;;;;;;;;;;;;;12.34;17.03;100690.06;4484403;31;34022;-65
2022/03/13 08:08:35;;;;;;;;;;;;;;;12.32;17.16;100685.75;4482903;31;34304;-64
2022/03/13 08:11:14;;;;;;;;;;;;;;;12.42;17.54;100694.03;4482863;31;32542;-65
2022/03/13 08:13:44;;;;;;;;;;;;;;;11.82;17.80;100687.25;4483799;31;33420;-67
2022/03/13 08:16:14;;;;;;;;;;;;;;;12.38;17.04;100689.84;4489149;31;35336;-65
2022/03/13 08:18:43;;;;;;;;;;;;;;;12.70;16.52;100688.53;4481919;31;34874;-65
2022/03/13 08:21:12;;;;;;;;;;;;;;;12.54;16.92;100687.84;4484530;31;35018;-66
2022/03/13 08:23:41;;;;;;;;;;;;;;;12.42;17.47;100683.31;4483307;31;33235;-65
2022/03/13 08:26:11;;;;;;;;;;;;;;;12.69;17.14;100685.94;4489072;31;35069;-64
2022/03/13 08:28:44;;;;;;;;;;;;;;;12.03;18.44;100690.38;4485962;31;33267;-64
2022/03/13 08:31:14;;;;;;;;;;;;;;;12.35;17.43;100688.22;4483974;31;34150;-64
2022/03/13 08:33:45;;;;;;;;;;;;;;;12.65;17.20;100677.25;4483445;31;32113;-67
2022/03/13 08:36:15;;;;;;;;;;;;;;;13.36;16.78;100681.25;4490577;31;32731;-65
2022/03/13 08:38:44;;;;;;;;;;;;;;;12.81;16.48;100674.37;4485169;31;34122;-65
2022/03/13 08:41:12;;;;;;;;;;;;;;;13.43;16.28;100673.59;4485151;31;33924;-65
2022/03/13 08:43:41;;;;;;;;;;;;;;;13.14;16.28;100676.50;4486579;31;33603;-66
2022/03/13 08:46:12;;;;;;;;;;;;;;;13.32;15.57;100670.81;4484492;31;34276;-66
2022/03/13 08:48:41;;;;;;;;;;;;;;;13.37;15.99;100666.84;4483290;31;35941;-65
2022/03/13 08:51:13;;;;;;;;;;;;;;;13.04;15.14;100670.06;4483134;31;33397;-64
2022/03/13 08:53:42;;;;;;;;;;;;;;;13.28;14.77;100675.56;4482999;31;33778;-64
2022/03/13 08:56:13;;;;;;;;;;;;;;;15.07;13.98;100678.28;4483471;31;34683;-65
2022/03/13 08:58:45;;;;;;;;;;;;;;;14.65;12.45;100669.03;4483850;31;33129;-65
2022/03/13 09:01:14;;;;;;;;;;;;;;;15.44;11.95;100664.59;4484545;31;34319;-65
2022/03/13 09:03:43;;;;;;;;;;;;;;;14.46;12.51;100658.75;4486859;31;33936;-65
2022/03/13 09:06:12;;;;;;;;;;;;;;;12.94;13.73;100679.75;4483217;31;34448;-65
2022/03/13 09:08:41;;;;;;;;;;;;;;;12.42;13.98;100664.50;4485544;31;35080;-65
2022/03/13 09:11:09;;;;;;;;;;;;;;;14.31;13.23;100674.25;4485045;31;34056;-65
2022/03/13 09:13:38;;;;;;;;;;;;;;;13.21;13.37;100666.19;4489855;31;33345;-65
2022/03/13 09:16:07;;;;;;;;;;;;;;;12.86;13.29;100655.22;4485140;31;33901;-65
2022/03/13 09:18:35;;;;;;;;;;;;;;;13.33;13.47;100665.34;4490357;31;34768;-66
2022/03/13 09:21:03;;;;;;;;;;;;;;;12.81;13.01;100664.47;4485337;31;34125;-66
2022/03/13 09:23:32;;;;;;;;;;;;;;;12.63;13.55;100664.88;4485576;31;32459;-66
2022/03/13 09:26:00;;;;;;;;;;;;;;;13.21;13.23;100658.97;4489681;31;35120;-66
2022/03/13 09:28:29;;;;;;;;;;;;;;;12.36;13.72;100657.75;4487298;31;34432;-65
2022/03/13 09:30:59;;;;;;;;;;;;;;;13.46;13.58;100652.72;4488905;31;33201;-66
2022/03/13 09:33:27;;;;;;;;;;;;;;;14.29;12.73;100654.66;4491689;31;31344;-65
2022/03/13 09:35:55;;;;;;;;;;;;;;;13.83;12.81;100652.72;4483191;31;34331;-66
2022/03/13 09:38:25;;;;;;;;;;;;;;;13.62;12.96;100655.16;4491705;31;35902;-66
2022/03/13 09:40:54;;;;;;;;;;;;;;;14.96;11.82;100653.13;4488743;31;34232;-65
2022/03/13 09:43:26;;;;;;;;;;;;;;;14.79;12.46;100658.03;4485959;31;34047;-68
2022/03/13 09:46:01;;;;;;;;;;;;;;;15.37;12.54;100648.00;4484900;31;33061;-68
2022/03/13 09:48:31;;;;;;;;;;;;;;;15.82;12.83;100647.97;4487602;31;33363;-66
2022/03/13 09:51:04;;;;;;;;;;;;;;;14.31;12.25;100650.00;4472960;31;34255;-65
2022/03/13 09:53:36;;;;;;;;;;;;;;;12.20;13.26;100657.94;4489880;31;32148;-64
2022/03/13 09:56:05;;;;;;;;;;;;;;;14.51;12.49;100637.78;4484052;31;33959;-65
2022/03/13 09:58:34;;;;;;;;;;;;;;;14.34;13.37;100630.94;4486771;31;34254;-66
2022/03/13 10:01:02;;;;;;;;;;;;;;;14.92;13.04;100625.56;4485770;31;35162;-65
2022/03/13 10:03:32;;;;;;;;;;;;;;;14.87;13.37;100620.56;4486638;31;32198;-65
2022/03/13 10:06:01;;;;;;;;;;;;;;;15.53;14.03;100619.78;4486869;31;34649;-65
2022/03/13 10:08:31;;;;;;;;;;;;;;;15.49;12.77;100621.88;4490791;31;33437;-65
2022/03/13 10:11:06;;;;;;;;;;;;;;;16.02;12.53;100622.03;4486939;31;33927;-65
2022/03/13 10:13:36;;;;;;;;;;;;;;;15.59;12.93;100620.16;4482771;31;33836;-65
2022/03/13 10:16:06;;;;;;;;;;;;;;;14.64;12.19;100629.59;4485825;31;33224;-65
2022/03/13 10:18:34;;;;;;;;;;;;;;;13.94;13.15;100619.66;4484712;31;34248;-65
2022/03/13 10:21:06;;;;;;;;;;;;;;;14.96;12.94;100627.06;4484754;31;32609;-65
2022/03/13 10:23:35;;;;;;;;;;;;;;;13.62;12.27;100617.50;4486192;31;32467;-66
2022/03/13 10:26:05;;;;;;;;;;;;;;;13.47;12.25;100626.69;4484541;31;32752;-66
2022/03/13 10:28:37;;;;;;;;;;;;;;;14.06;12.68;100621.41;4485282;31;33840;-66
2022/03/13 10:31:13;;;;;;;;;;;;;;;15.20;13.18;100609.91;4484205;31;33822;-66
2022/03/13 10:33:58;;;;;;;;;;;;;;;16.23;12.22;100608.56;4487981;31;32238;-66
2022/03/13 10:36:32;;;;;;;;;;;;;;;15.13;12.26;100609.53;4484894;31;34293;-65
2022/03/13 10:39:03;;;;;;;;;;;;;;;14.35;12.20;100607.53;4486204;31;34419;-65
2022/03/13 10:41:42;;;;;;;;;;;;;;;13.72;13.36;100618.53;4486808;31;33961;-65
2022/03/13 10:44:15;;;;;;;;;;;;;;;13.51;13.08;100612.03;4481371;31;33355;-67
2022/03/13 10:46:44;;;;;;;;;;;;;;;13.36;13.50;100615.88;4482927;31;34034;-65
2022/03/13 10:49:14;;;;;;;;;;;;;;;13.63;12.97;100619.22;4484785;31;34797;-65
2022/03/13 10:51:48;;;;;;;;;;;;;;;12.89;14.04;100609.34;4487169;31;34941;-65
2022/03/13 10:54:36;;;;;;;;;;;;;;;14.78;14.24;100606.94;4474064;32;32800;-65
2022/03/13 10:57:05;;;;;;;;;;;;;;;15.07;12.87;100601.94;4488426;31;34322;-65
2022/03/13 10:59:39;;;;;;;;;;;;;;;15.73;12.32;100600.16;4493310;31;34257;-65
2022/03/13 11:02:16;;;;;;;;;;;;;;;15.01;12.86;100600.59;4488098;31;33246;-65
2022/03/13 11:04:54;;;;;;;;;;;;;;;15.21;12.45;100598.12;4487533;31;33586;-66
2022/03/13 11:07:27;;;;;;;;;;;;;;;14.90;12.67;100592.50;4488011;31;33947;-65
2022/03/13 11:09:57;;;;;;;;;;;;;;;15.55;12.63;100593.56;4491098;31;32411;-65
2022/03/13 11:12:41;;;;;;;;;;;;;;;13.95;12.50;100594.44;4486575;31;33037;-67
2022/03/13 11:15:15;;;;;;;;;;;;;;;14.54;12.87;100585.47;4488522;31;32169;-65
2022/03/13 11:17:45;;;;;;;;;;;;;;;14.72;12.28;100596.66;4489471;31;32848;-66
2022/03/13 11:20:16;;;;;;;;;;;;;;;14.49;12.63;100579.56;4473919;31;34514;-66
2022/03/13 11:22:48;;;;;;;;;;;;;;;14.86;13.27;100581.12;4472239;31;32580;-66
2022/03/13 11:25:16;;;;;;;;;;;;;;;14.79;12.58;100585.25;4496577;31;33501;-66
2022/03/13 11:27:55;;;;;;;;;;;;;;;14.71;12.44;100578.78;4477776;31;33056;-66
2022/03/13 11:30:36;;;;;;;;;;;;;;;14.70;12.63;100580.59;4486943;31;34900;-65
2022/03/13 11:33:07;;;;;;;;;;;;;;;13.15;13.13;100583.28;4493333;31;32839;-65
2022/03/13 11:35:45;;;;;;;;;;;;;;;13.92;13.90;100584.75;4489567;31;32042;-66
2022/03/13 11:38:18;;;;;;;;;;;;;;;15.08;13.26;100574.00;4492762;31;35334;-65
2022/03/13 11:40:50;;;;;;;;;;;;;;;15.05;13.19;100569.69;4488428;31;33406;-65
2022/03/13 11:43:22;;;;;;;;;;;;;;;13.85;12.95;100566.50;4486239;31;33183;-65
2022/03/13 11:46:00;;;;;;;;;;;;;;;14.04;12.84;100564.12;4487090;31;32907;-65
2022/03/13 11:48:37;;;;;;;;;;;;;;;14.12;12.55;100566.22;4489528;31;32839;-66
2022/03/13 11:51:11;;;;;;;;;;;;;;;14.67;12.37;100559.31;4484898;31;33863;-65
2022/03/13 11:53:52;;;;;;;;;;;;;;;14.78;12.45;100551.22;4488803;31;34254;-65
2022/03/13 11:56:29;;;;;;;;;;;;;;;15.94;12.83;100545.37;4491411;31;33283;-65
2022/03/13 11:59:18;;;;;;;;;;;;;;;15.23;12.05;100548.50;4493314;31;33023;-65
2022/03/13 12:01:52;;;;;;;;;;;;;;;15.12;13.05;100541.28;4487000;31;33029;-65
2022/03/13 12:04:23;;;;;;;;;;;;;;;14.43;12.81;100548.56;4491556;31;35317;-66
2022/03/13 12:07:00;;;;;;;;;;;;;;;13.18;13.50;100545.44;4494690;31;32318;-65
2022/03/13 12:09:33;;;;;;;;;;;;;;;14.32;13.73;100535.94;4495056;31;33762;-65
2022/03/13 12:12:07;;;;;;;;;;;;;;;14.45;12.81;100525.06;4491802;31;33177;-65
2022/03/13 12:15:03;;;;;;;;;;;;;;;13.13;13.34;100526.97;4486632;31;34285;-65
2022/03/13 12:17:46;;;;;;;;;;;;;;;13.52;13.50;100530.41;4486034;31;32077;-64
2022/03/13 12:20:20;;;;;;;;;;;;;;;13.45;13.55;100524.63;4491768;31;35322;-65
2022/03/13 12:23:00;;;;;;;;;;;;;;;13.74;13.29;100513.50;4486900;31;34248;-66
2022/03/13 12:25:34;;;;;;;;;;;;;;;14.19;12.86;100516.34;4488907;31;33785;-63
2022/03/13 12:28:05;;;;;;;;;;;;;;;13.67;13.02;100515.78;4495664;31;34379;-64
2022/03/13 12:30:37;;;;;;;;;;;;;;;13.99;13.03;100507.94;4487347;31;33949;-64
2022/03/13 12:33:10;;;;;;;;;;;;;;;13.77;14.27;100518.63;4486901;31;33931;-64
2022/03/13 12:35:56;;;;;;;;;;;;;;;14.99;13.37;100508.22;4471601;31;33784;-65
2022/03/13 12:38:28;;;;;;;;;;;;;;;15.36;12.69;100505.19;4487844;31;33296;-64
2022/03/13 12:41:01;;;;;;;;;;;;;;;14.38;12.52;100496.88;4488161;31;34443;-64
2022/03/13 12:43:50;;;;;;;;;;;;;;;14.28;13.17;100507.53;4491363;31;34221;-65
2022/03/13 12:46:21;;;;;;;;;;;;;;;14.27;12.60;100507.66;4485939;31;34147;-66
2022/03/13 12:48:55;;;;;;;;;;;;;;;14.89;13.39;100504.53;4486846;31;33569;-65
2022/03/13 12:51:38;;;;;;;;;;;;;;;14.89;12.83;100491.03;4484689;31;34345;-65
2022/03/13 12:54:11;;;;;;;;;;;;;;;14.53;12.80;100492.16;4487406;31;34476;-66
2022/03/13 12:57:08;;;;;;;;;;;;;;;14.66;12.55;100488.37;4487645;31;34956;-65
2022/03/13 12:59:48;;;;;;;;;;;;;;;14.28;12.67;100495.91;4481624;31;34801;-65
2022/03/13 13:02:18;;;;;;;;;;;;;;;13.29;13.41;100497.16;4479882;31;33798;-64
2022/03/13 13:04:48;;;;;;;;;;;;;;;13.78;13.41;100506.91;4482145;31;32787;-65
2022/03/13 13:07:17;;;;;;;;;;;;;;;14.33;12.51;100499.09;4482780;31;34120;-67